SBOSBO BTS / LZIB
Speedbird OnlineSpeedbird Online BTS / LZIB

M. R. Štefánik Airport
01:22 15.8°C

Location Bratislava, Slovakia
Latitude: 48.17020034790039
Longitude: 17.21269989013672
Local Time 01:22 on 26 May 2024
UTC +2 hours (Europe/Bratislava)
Currency £1 equals EUR 1.17
METAR LZIB 252300Z 02006KT CAVOK 17/12 Q1018 NOSIG
TAF TAF LZIB 251715Z 2518/2618 04006KT 9999 SCT035 TEMPO 2518/2600 15012KT SHRA SCT008 SCT035CB TEMPO 2600/2606 2000 BCFG BKN009 BECMG 2607/2609 14007KT TEMPO 2612/2618 SHRA SCT035CB PROB40 TEMPO 2613/2617 TSRA
Weather As Of 26 May 2024 01:22
Description Clear sky
Wind 11 km/h from North (20°)
Cloud Cover 0%
Precipitation Rain: none, Snow: none
Sunrise 04:59
Sunset 20:37
Web Wikipedia
Codes IATA: BTS
ICAO: LZIB
Altitude 133 Meter / 436 Feet
Distance 1,276 KM / 793 Miles
from London.
Runways
RunwayLength (m)Surface
042900Concrete
133190Concrete
222900Concrete
313190Concrete
Radio
TypeDescriptionFrequency
APPAPP120.9
ATISATIS128.65
TWRTWR118.3
Live ATC



Support Speedbird Online

© 2017-2024 Speedbird Online